sensor_id;sensor_type;location;lat;lon;timestamp;pressure;altitude;pressure_sealevel;temperature;humidity
59859;BME280;45734;53.648;9.566;2024-03-02T00:04:00;53228.19;;;-145.06;100.00
59859;BME280;45734;53.648;9.566;2024-03-02T00:09:00;53195.78;;;-145.06;100.00
59859;BME280;45734;53.648;9.566;2024-03-02T00:14:01;53171.50;;;-145.06;100.00
59859;BME280;45734;53.648;9.566;2024-03-02T00:19:02;53218.06;;;-145.06;100.00
59859;BME280;45734;53.648;9.566;2024-03-02T00:24:20;53179.59;;;-145.06;100.00
59859;BME280;45734;53.648;9.566;2024-03-02T00:29:21;53183.66;;;-145.06;100.00
59859;BME280;45734;53.648;9.566;2024-03-02T00:34:22;53181.63;;;-145.06;100.00
59859;BME280;45734;53.648;9.566;2024-03-02T00:39:22;53179.59;;;-145.06;100.00
59859;BME280;45734;53.648;9.566;2024-03-02T00:44:25;53175.53;;;-145.06;100.00
59859;BME280;45734;53.648;9.566;2024-03-02T00:49:26;53181.63;;;-145.06;100.00
59859;BME280;45734;53.648;9.566;2024-03-02T00:54:29;53173.53;;;-145.06;100.00
59859;BME280;45734;53.648;9.566;2024-03-02T00:59:30;53163.41;;;-145.06;100.00
59859;BME280;45734;53.648;9.566;2024-03-02T01:04:31;53147.19;;;-145.06;100.00
59859;BME280;45734;53.648;9.566;2024-03-02T01:09:32;53155.28;;;-145.06;100.00
59859;BME280;45734;53.648;9.566;2024-03-02T01:14:32;53151.25;;;-145.06;100.00
59859;BME280;45734;53.648;9.566;2024-03-02T01:19:32;53155.28;;;-145.06;100.00
59859;BME280;45734;53.648;9.566;2024-03-02T01:24:33;53155.28;;;-145.06;100.00
59859;BME280;45734;53.648;9.566;2024-03-02T01:29:33;53155.28;;;-145.06;100.00
59859;BME280;45734;53.648;9.566;2024-03-02T01:34:33;53135.06;;;-145.06;100.00
59859;BME280;45734;53.648;9.566;2024-03-02T01:39:33;53126.94;;;-145.06;100.00
59859;BME280;45734;53.648;9.566;2024-03-02T01:44:34;53133.03;;;-145.06;100.00
59859;BME280;45734;53.648;9.566;2024-03-02T01:49:34;53171.50;;;-145.06;100.00
59859;BME280;45734;53.648;9.566;2024-03-02T01:54:34;53187.69;;;-145.06;100.00
59859;BME280;45734;53.648;9.566;2024-03-02T01:59:35;53118.84;;;-145.06;100.00
59859;BME280;45734;53.648;9.566;2024-03-02T02:04:35;53167.44;;;-145.06;100.00
59859;BME280;45734;53.648;9.566;2024-03-02T02:09:35;53151.25;;;-145.06;100.00
59859;BME280;45734;53.648;9.566;2024-03-02T02:14:36;53139.09;;;-145.06;100.00
59859;BME280;45734;53.648;9.566;2024-03-02T02:19:37;53126.94;;;-145.06;100.00
59859;BME280;45734;53.648;9.566;2024-03-02T02:24:41;53133.03;;;-145.06;100.00
59859;BME280;45734;53.648;9.566;2024-03-02T02:29:41;53128.97;;;-145.06;100.00
59859;BME280;45734;53.648;9.566;2024-03-02T02:34:42;53128.97;;;-145.06;100.00
59859;BME280;45734;53.648;9.566;2024-03-02T02:39:43;53147.19;;;-145.06;100.00
59859;BME280;45734;53.648;9.566;2024-03-02T02:44:43;53161.38;;;-145.06;100.00
59859;BME280;45734;53.648;9.566;2024-03-02T02:49:44;53135.06;;;-145.06;100.00
59859;BME280;45734;53.648;9.566;2024-03-02T02:54:44;53153.28;;;-145.06;100.00
59859;BME280;45734;53.648;9.566;2024-03-02T02:59:44;53131.00;;;-145.06;100.00
59859;BME280;45734;53.648;9.566;2024-03-02T03:04:45;53143.16;;;-145.06;100.00
59859;BME280;45734;53.648;9.566;2024-03-02T03:09:45;53173.53;;;-145.06;100.00
59859;BME280;45734;53.648;9.566;2024-03-02T03:14:45;53149.22;;;-145.06;100.00
59859;BME280;45734;53.648;9.566;2024-03-02T03:19:46;53126.94;;;-145.06;100.00
59859;BME280;45734;53.648;9.566;2024-03-02T03:24:46;53114.81;;;-145.06;100.00
59859;BME280;45734;53.648;9.566;2024-03-02T03:29:46;53153.28;;;-145.06;100.00
59859;BME280;45734;53.648;9.566;2024-03-02T03:34:47;53151.25;;;-145.06;100.00
59859;BME280;45734;53.648;9.566;2024-03-02T03:39:48;53161.38;;;-145.06;100.00
59859;BME280;45734;53.648;9.566;2024-03-02T03:44:48;53161.38;;;-145.06;100.00
59859;BME280;45734;53.648;9.566;2024-03-02T03:49:49;53155.28;;;-145.06;100.00
59859;BME280;45734;53.648;9.566;2024-03-02T03:54:49;53147.19;;;-145.06;100.00
59859;BME280;45734;53.648;9.566;2024-03-02T03:59:50;53161.38;;;-145.06;100.00
59859;BME280;45734;53.648;9.566;2024-03-02T04:04:50;53175.53;;;-145.06;100.00
59859;BME280;45734;53.648;9.566;2024-03-02T04:09:51;53159.34;;;-145.06;100.00
59859;BME280;45734;53.648;9.566;2024-03-02T04:14:51;53151.25;;;-145.06;100.00
59859;BME280;45734;53.648;9.566;2024-03-02T04:19:51;53151.25;;;-145.06;100.00
59859;BME280;45734;53.648;9.566;2024-03-02T04:24:52;53133.03;;;-145.06;100.00
59859;BME280;45734;53.648;9.566;2024-03-02T04:29:52;53175.53;;;-145.06;100.00
59859;BME280;45734;53.648;9.566;2024-03-02T04:34:52;53161.38;;;-145.06;100.00
59859;BME280;45734;53.648;9.566;2024-03-02T04:39:53;53177.56;;;-145.06;100.00
59859;BME280;45734;53.648;9.566;2024-03-02T04:44:54;53169.47;;;-145.06;100.00
59859;BME280;45734;53.648;9.566;2024-03-02T04:49:54;53137.06;;;-145.06;100.00
59859;BME280;45734;53.648;9.566;2024-03-02T04:54:54;53135.06;;;-145.06;100.00
59859;BME280;45734;53.648;9.566;2024-03-02T05:00:10;53143.16;;;-145.06;100.00
59859;BME280;45734;53.648;9.566;2024-03-02T05:05:11;53137.06;;;-145.06;100.00
59859;BME280;45734;53.648;9.566;2024-03-02T05:10:11;53155.28;;;-145.06;100.00
59859;BME280;45734;53.648;9.566;2024-03-02T05:15:13;53159.34;;;-145.06;100.00
59859;BME280;45734;53.648;9.566;2024-03-02T05:20:13;53173.53;;;-145.06;100.00
59859;BME280;45734;53.648;9.566;2024-03-02T05:25:14;53133.03;;;-145.06;100.00
59859;BME280;45734;53.648;9.566;2024-03-02T05:30:14;53159.34;;;-145.06;100.00
59859;BME280;45734;53.648;9.566;2024-03-02T05:35:14;53141.13;;;-145.06;100.00
59859;BME280;45734;53.648;9.566;2024-03-02T05:40:15;53157.31;;;-145.06;100.00
59859;BME280;45734;53.648;9.566;2024-03-02T05:45:15;53181.63;;;-145.06;100.00
59859;BME280;45734;53.648;9.566;2024-03-02T05:50:16;53157.31;;;-145.06;100.00
59859;BME280;45734;53.648;9.566;2024-03-02T05:55:20;53173.53;;;-145.06;100.00
59859;BME280;45734;53.648;9.566;2024-03-02T06:00:20;53167.44;;;-145.06;100.00
59859;BME280;45734;53.648;9.566;2024-03-02T06:05:20;53161.38;;;-145.06;100.00
59859;BME280;45734;53.648;9.566;2024-03-02T06:10:21;53173.53;;;-145.06;100.00
59859;BME280;45734;53.648;9.566;2024-03-02T06:15:21;53141.13;;;-145.06;100.00
59859;BME280;45734;53.648;9.566;2024-03-02T06:20:21;53171.50;;;-145.06;100.00
59859;BME280;45734;53.648;9.566;2024-03-02T06:25:22;53169.47;;;-145.06;100.00
59859;BME280;45734;53.648;9.566;2024-03-02T06:30:22;53165.41;;;-145.06;100.00
59859;BME280;45734;53.648;9.566;2024-03-02T06:35:22;53149.22;;;-145.06;100.00
59859;BME280;45734;53.648;9.566;2024-03-02T06:40:22;53157.31;;;-145.06;100.00
59859;BME280;45734;53.648;9.566;2024-03-02T06:45:23;53163.41;;;-145.06;100.00
59859;BME280;45734;53.648;9.566;2024-03-02T06:50:23;53131.00;;;-145.06;100.00
59859;BME280;45734;53.648;9.566;2024-03-02T06:55:23;53126.94;;;-145.06;100.00
59859;BME280;45734;53.648;9.566;2024-03-02T07:00:24;53116.81;;;-145.06;100.00
59859;BME280;45734;53.648;9.566;2024-03-02T07:05:25;53114.81;;;-145.06;100.00
59859;BME280;45734;53.648;9.566;2024-03-02T07:10:25;53082.41;;;-145.06;100.00
59859;BME280;45734;53.648;9.566;2024-03-02T07:15:25;53086.47;;;-145.06;100.00
59859;BME280;45734;53.648;9.566;2024-03-02T07:20:28;53108.72;;;-145.06;100.00
59859;BME280;45734;53.648;9.566;2024-03-02T07:25:29;53100.63;;;-145.06;100.00
59859;BME280;45734;53.648;9.566;2024-03-02T07:30:29;53118.84;;;-145.06;100.00
59859;BME280;45734;53.648;9.566;2024-03-02T07:35:29;53082.41;;;-145.06;100.00
59859;BME280;45734;53.648;9.566;2024-03-02T07:40:31;53003.44;;;-145.06;100.00
59859;BME280;45734;53.648;9.566;2024-03-02T07:45:32;52888.03;;;-145.06;100.00
59859;BME280;45734;53.648;9.566;2024-03-02T07:50:32;52839.44;;;-145.06;100.00
59859;BME280;45734;53.648;9.566;2024-03-02T07:55:35;52859.69;;;-145.06;95.96
59859;BME280;45734;53.648;9.566;2024-03-02T08:00:35;52987.25;;;-145.06;96.17
59859;BME280;45734;53.648;9.566;2024-03-02T08:05:35;52938.66;;;-145.06;97.23
59859;BME280;45734;53.648;9.566;2024-03-02T08:10:35;52845.53;;;-145.06;95.56
59859;BME280;45734;53.648;9.566;2024-03-02T08:15:36;52778.72;;;-145.06;88.34
59859;BME280;45734;53.648;9.566;2024-03-02T08:20:36;52742.25;;;-145.06;85.71
59859;BME280;45734;53.648;9.566;2024-03-02T08:25:36;52744.28;;;-145.06;79.95
59859;BME280;45734;53.648;9.566;2024-03-02T08:30:37;52742.25;;;-145.06;81.01
59859;BME280;45734;53.648;9.566;2024-03-02T08:35:37;52762.50;;;-145.06;80.67
59859;BME280;45734;53.648;9.566;2024-03-02T08:40:38;52750.38;;;-145.06;79.15
59859;BME280;45734;53.648;9.566;2024-03-02T08:45:38;52766.56;;;-145.06;78.74
59859;BME280;45734;53.648;9.566;2024-03-02T08:50:39;52837.41;;;-145.06;79.29
59859;BME280;45734;53.648;9.566;2024-03-02T08:55:39;52841.47;;;-145.06;81.06
59859;BME280;45734;53.648;9.566;2024-03-02T09:00:40;52819.19;;;-145.06;81.16
59859;BME280;45734;53.648;9.566;2024-03-02T09:05:41;52803.00;;;-145.06;80.73
59859;BME280;45734;53.648;9.566;2024-03-02T09:10:43;52807.06;;;-145.06;78.52
59859;BME280;45734;53.648;9.566;2024-03-02T09:15:44;52766.56;;;-145.06;79.91
59859;BME280;45734;53.648;9.566;2024-03-02T09:20:44;52796.94;;;-145.06;77.90
59859;BME280;45734;53.648;9.566;2024-03-02T09:25:44;52813.13;;;-145.06;80.36
59859;BME280;45734;53.648;9.566;2024-03-02T09:30:44;52867.78;;;-145.06;82.36
59859;BME280;45734;53.648;9.566;2024-03-02T09:35:45;52849.56;;;-145.06;84.78
59859;BME280;45734;53.648;9.566;2024-03-02T09:40:46;52888.03;;;-145.06;81.71
59859;BME280;45734;53.648;9.566;2024-03-02T09:45:46;52837.41;;;-145.06;84.51
59859;BME280;45734;53.648;9.566;2024-03-02T09:50:46;52894.09;;;-145.06;82.27
59859;BME280;45734;53.648;9.566;2024-03-02T09:55:47;52849.56;;;-145.06;82.99
59859;BME280;45734;53.648;9.566;2024-03-02T10:00:47;52890.06;;;-145.06;81.70
59859;BME280;45734;53.648;9.566;2024-03-02T10:05:49;52896.13;;;-145.06;81.68
59859;BME280;45734;53.648;9.566;2024-03-02T10:10:49;52869.81;;;-145.06;83.54
59859;BME280;45734;53.648;9.566;2024-03-02T10:15:50;52843.50;;;-145.06;85.77
59859;BME280;45734;53.648;9.566;2024-03-02T10:20:50;52837.41;;;-145.06;84.05
59859;BME280;45734;53.648;9.566;2024-03-02T10:25:50;52877.91;;;-145.06;84.36
59859;BME280;45734;53.648;9.566;2024-03-02T10:30:51;52896.13;;;-145.06;80.73
59859;BME280;45734;53.648;9.566;2024-03-02T10:35:52;52892.09;;;-145.06;85.41
59859;BME280;45734;53.648;9.566;2024-03-02T10:40:52;52881.97;;;-145.06;82.69
59859;BME280;45734;53.648;9.566;2024-03-02T10:45:56;52890.06;;;-145.06;82.93
59859;BME280;45734;53.648;9.566;2024-03-02T10:50:57;52873.88;;;-145.06;81.46
59859;BME280;45734;53.648;9.566;2024-03-02T10:56:02;52855.63;;;-145.06;81.10
59859;BME280;45734;53.648;9.566;2024-03-02T11:01:07;52884.00;;;-145.06;80.19
59859;BME280;45734;53.648;9.566;2024-03-02T11:06:11;52886.00;;;-145.06;77.99
59859;BME280;45734;53.648;9.566;2024-03-02T11:11:15;52845.53;;;-145.06;80.38
59859;BME280;45734;53.648;9.566;2024-03-02T11:16:35;52884.00;;;-145.06;78.33
59859;BME280;45734;53.648;9.566;2024-03-02T11:21:37;52894.09;;;-145.06;78.67
59859;BME280;45734;53.648;9.566;2024-03-02T11:26:38;52906.25;;;-145.06;77.45
59859;BME280;45734;53.648;9.566;2024-03-02T11:31:58;52877.91;;;-145.06;78.46
59859;BME280;45734;53.648;9.566;2024-03-02T11:37:02;52902.22;;;-145.06;79.10
59859;BME280;45734;53.648;9.566;2024-03-02T11:42:03;52908.28;;;-145.06;75.13
59859;BME280;45734;53.648;9.566;2024-03-02T11:47:07;52930.56;;;-145.06;74.69
59859;BME280;45734;53.648;9.566;2024-03-02T11:52:09;52906.25;;;-145.06;76.17
59859;BME280;45734;53.648;9.566;2024-03-02T11:57:11;52977.13;;;-145.06;72.68
59859;BME280;45734;53.648;9.566;2024-03-02T12:02:15;52971.03;;;-145.06;74.80
59859;BME280;45734;53.648;9.566;2024-03-02T12:07:22;52938.66;;;-145.06;74.76
59859;BME280;45734;53.648;9.566;2024-03-02T12:12:23;52977.13;;;-145.06;72.43
59859;BME280;45734;53.648;9.566;2024-03-02T12:17:23;52967.00;;;-145.06;71.93
59859;BME280;45734;53.648;9.566;2024-03-02T12:22:24;52946.75;;;-145.06;73.96
59859;BME280;45734;53.648;9.566;2024-03-02T12:27:24;52944.72;;;-145.06;73.50
59859;BME280;45734;53.648;9.566;2024-03-02T12:32:24;52960.91;;;-145.06;73.86
59859;BME280;45734;53.648;9.566;2024-03-02T12:37:25;52924.47;;;-145.06;74.31
59859;BME280;45734;53.648;9.566;2024-03-02T12:42:27;52898.16;;;-145.06;73.58
59859;BME280;45734;53.648;9.566;2024-03-02T12:47:28;52981.16;;;-145.06;69.59
59859;BME280;45734;53.648;9.566;2024-03-02T12:52:28;52936.63;;;-145.06;73.07
59859;BME280;45734;53.648;9.566;2024-03-02T12:57:29;52936.63;;;-145.06;71.35
59859;BME280;45734;53.648;9.566;2024-03-02T13:02:31;52940.69;;;-145.06;72.75
59859;BME280;45734;53.648;9.566;2024-03-02T13:07:31;52971.03;;;-145.06;68.72
59859;BME280;45734;53.648;9.566;2024-03-02T13:12:35;52934.59;;;-145.06;69.89
59859;BME280;45734;53.648;9.566;2024-03-02T13:17:35;52995.34;;;-145.06;64.52
59859;BME280;45734;53.648;9.566;2024-03-02T13:22:36;53013.56;;;-145.06;65.73
59859;BME280;45734;53.648;9.566;2024-03-02T13:27:37;52964.97;;;-145.06;67.65
59859;BME280;45734;53.648;9.566;2024-03-02T13:32:37;52981.16;;;-145.06;66.72
59859;BME280;45734;53.648;9.566;2024-03-02T13:37:37;53025.72;;;-145.06;67.83
59859;BME280;45734;53.648;9.566;2024-03-02T13:42:39;52969.03;;;-145.06;68.51
59859;BME280;45734;53.648;9.566;2024-03-02T13:47:39;53011.53;;;-145.06;68.06
59859;BME280;45734;53.648;9.566;2024-03-02T13:52:39;52985.22;;;-145.06;69.66
59859;BME280;45734;53.648;9.566;2024-03-02T13:57:40;53011.53;;;-145.06;67.80
59859;BME280;45734;53.648;9.566;2024-03-02T14:02:40;52999.41;;;-145.06;68.58
59859;BME280;45734;53.648;9.566;2024-03-02T14:07:41;52977.13;;;-145.06;69.21
59859;BME280;45734;53.648;9.566;2024-03-02T14:12:41;52973.06;;;-145.06;68.72
59859;BME280;45734;53.648;9.566;2024-03-02T14:17:42;52926.50;;;-145.06;69.10
59859;BME280;45734;53.648;9.566;2024-03-02T14:22:42;53023.69;;;-145.06;66.14
59859;BME280;45734;53.648;9.566;2024-03-02T14:27:43;52993.31;;;-145.06;67.57
59859;BME280;45734;53.648;9.566;2024-03-02T14:32:43;52985.22;;;-145.06;68.30
59859;BME280;45734;53.648;9.566;2024-03-02T14:37:45;52944.72;;;-145.06;67.87
59859;BME280;45734;53.648;9.566;2024-03-02T14:42:45;52993.31;;;-145.06;68.19
59859;BME280;45734;53.648;9.566;2024-03-02T14:47:48;52991.28;;;-145.06;68.17
59859;BME280;45734;53.648;9.566;2024-03-02T14:52:48;52964.97;;;-145.06;69.61
59859;BME280;45734;53.648;9.566;2024-03-02T14:57:49;52989.28;;;-145.06;68.54
59859;BME280;45734;53.648;9.566;2024-03-02T15:02:49;52977.13;;;-145.06;71.01
59859;BME280;45734;53.648;9.566;2024-03-02T15:07:50;52993.31;;;-145.06;68.26
59859;BME280;45734;53.648;9.566;2024-03-02T15:12:50;53011.53;;;-145.06;69.81
59859;BME280;45734;53.648;9.566;2024-03-02T15:17:51;52973.06;;;-145.06;70.83
59859;BME280;45734;53.648;9.566;2024-03-02T15:22:52;52989.28;;;-145.06;70.88
59859;BME280;45734;53.648;9.566;2024-03-02T15:27:52;52995.34;;;-145.06;72.08
59859;BME280;45734;53.648;9.566;2024-03-02T15:32:53;53011.53;;;-145.06;71.59
59859;BME280;45734;53.648;9.566;2024-03-02T15:37:53;53037.88;;;-145.06;72.00
59859;BME280;45734;53.648;9.566;2024-03-02T15:42:53;53017.63;;;-145.06;72.32
59859;BME280;45734;53.648;9.566;2024-03-02T15:47:54;53058.09;;;-145.06;72.67
59859;BME280;45734;53.648;9.566;2024-03-02T15:52:54;53027.75;;;-145.06;73.78
59859;BME280;45734;53.648;9.566;2024-03-02T15:58:02;53045.97;;;-145.06;73.21
59859;BME280;45734;53.648;9.566;2024-03-02T16:03:06;53033.81;;;-145.06;74.74
59859;BME280;45734;53.648;9.566;2024-03-02T16:08:06;53058.09;;;-145.06;75.65
59859;BME280;45734;53.648;9.566;2024-03-02T16:13:06;53054.06;;;-145.06;77.20
59859;BME280;45734;53.648;9.566;2024-03-02T16:18:06;53064.19;;;-145.06;76.24
59859;BME280;45734;53.648;9.566;2024-03-02T16:23:07;53102.66;;;-145.06;76.11
59859;BME280;45734;53.648;9.566;2024-03-02T16:28:07;53090.50;;;-145.06;77.17
59859;BME280;45734;53.648;9.566;2024-03-02T16:33:08;53100.63;;;-145.06;77.52
59859;BME280;45734;53.648;9.566;2024-03-02T16:38:08;53157.31;;;-145.06;77.75
59859;BME280;45734;53.648;9.566;2024-03-02T16:43:10;53128.97;;;-145.06;79.55
59859;BME280;45734;53.648;9.566;2024-03-02T16:48:10;53133.03;;;-145.06;82.00
59859;BME280;45734;53.648;9.566;2024-03-02T16:53:11;53147.19;;;-145.06;84.04
59859;BME280;45734;53.648;9.566;2024-03-02T16:58:11;53163.41;;;-145.06;86.42
59859;BME280;45734;53.648;9.566;2024-03-02T17:03:11;53161.38;;;-145.06;89.04
59859;BME280;45734;53.648;9.566;2024-03-02T17:08:11;53159.34;;;-145.06;91.20
59859;BME280;45734;53.648;9.566;2024-03-02T17:13:12;53187.69;;;-145.06;92.48
59859;BME280;45734;53.648;9.566;2024-03-02T17:18:12;53155.28;;;-145.06;93.88
59859;BME280;45734;53.648;9.566;2024-03-02T17:23:12;53143.16;;;-145.06;94.68
59859;BME280;45734;53.648;9.566;2024-03-02T17:28:22;53185.66;;;-145.06;94.26
59859;BME280;45734;53.648;9.566;2024-03-02T17:33:24;53195.78;;;-145.06;95.25
59859;BME280;45734;53.648;9.566;2024-03-02T17:38:24;53203.91;;;-145.06;97.41
59859;BME280;45734;53.648;9.566;2024-03-02T17:43:24;53179.59;;;-145.06;99.26
59859;BME280;45734;53.648;9.566;2024-03-02T17:48:25;53197.81;;;-145.06;100.00
59859;BME280;45734;53.648;9.566;2024-03-02T17:53:26;53197.81;;;-145.06;100.00
59859;BME280;45734;53.648;9.566;2024-03-02T17:58:26;53218.06;;;-145.06;100.00
59859;BME280;45734;53.648;9.566;2024-03-02T18:03:26;53191.75;;;-145.06;100.00
59859;BME280;45734;53.648;9.566;2024-03-02T18:08:27;53183.66;;;-145.06;100.00
59859;BME280;45734;53.648;9.566;2024-03-02T18:13:27;53163.41;;;-145.06;100.00
59859;BME280;45734;53.648;9.566;2024-03-02T18:18:29;53218.06;;;-145.06;100.00
59859;BME280;45734;53.648;9.566;2024-03-02T18:23:29;53238.31;;;-145.06;100.00
59859;BME280;45734;53.648;9.566;2024-03-02T18:28:30;53242.38;;;-145.06;100.00
59859;BME280;45734;53.648;9.566;2024-03-02T18:33:31;53244.38;;;-145.06;100.00
59859;BME280;45734;53.648;9.566;2024-03-02T18:38:31;53254.50;;;-145.06;100.00
59859;BME280;45734;53.648;9.566;2024-03-02T18:43:31;53222.13;;;-145.06;100.00
59859;BME280;45734;53.648;9.566;2024-03-02T18:48:31;53203.91;;;-145.06;100.00
59859;BME280;45734;53.648;9.566;2024-03-02T18:53:32;53272.75;;;-145.06;100.00
59859;BME280;45734;53.648;9.566;2024-03-02T18:58:32;53264.63;;;-145.06;100.00
59859;BME280;45734;53.648;9.566;2024-03-02T19:03:32;53250.47;;;-145.06;100.00
59859;BME280;45734;53.648;9.566;2024-03-02T19:08:33;53288.94;;;-145.06;100.00
59859;BME280;45734;53.648;9.566;2024-03-02T19:13:33;53284.88;;;-145.06;100.00
59859;BME280;45734;53.648;9.566;2024-03-02T19:18:33;53264.63;;;-145.06;100.00
59859;BME280;45734;53.648;9.566;2024-03-02T19:23:34;53288.94;;;-145.06;100.00
59859;BME280;45734;53.648;9.566;2024-03-02T19:28:34;53309.19;;;-145.06;100.00
59859;BME280;45734;53.648;9.566;2024-03-02T19:33:34;53317.28;;;-145.06;100.00
59859;BME280;45734;53.648;9.566;2024-03-02T19:38:35;53325.38;;;-145.06;100.00
59859;BME280;45734;53.648;9.566;2024-03-02T19:43:35;53315.25;;;-145.06;100.00
59859;BME280;45734;53.648;9.566;2024-03-02T19:48:35;53317.28;;;-145.06;100.00
59859;BME280;45734;53.648;9.566;2024-03-02T19:53:36;53282.88;;;-145.06;100.00
59859;BME280;45734;53.648;9.566;2024-03-02T19:58:38;53307.16;;;-145.06;100.00
59859;BME280;45734;53.648;9.566;2024-03-02T20:03:38;53327.41;;;-145.06;100.00
59859;BME280;45734;53.648;9.566;2024-03-02T20:08:38;53309.19;;;-145.06;100.00
59859;BME280;45734;53.648;9.566;2024-03-02T20:13:38;53297.03;;;-145.06;100.00
59859;BME280;45734;53.648;9.566;2024-03-02T20:18:39;53313.22;;;-145.06;100.00
59859;BME280;45734;53.648;9.566;2024-03-02T20:23:39;53313.22;;;-145.06;100.00
59859;BME280;45734;53.648;9.566;2024-03-02T20:28:42;53313.22;;;-145.06;100.00
59859;BME280;45734;53.648;9.566;2024-03-02T20:33:43;53268.69;;;-145.06;100.00
59859;BME280;45734;53.648;9.566;2024-03-02T20:38:43;53290.97;;;-145.06;100.00
59859;BME280;45734;53.648;9.566;2024-03-02T20:43:44;53246.41;;;-145.06;100.00
59859;BME280;45734;53.648;9.566;2024-03-02T20:48:45;53254.50;;;-145.06;100.00
59859;BME280;45734;53.648;9.566;2024-03-02T20:53:47;53290.97;;;-145.06;100.00
59859;BME280;45734;53.648;9.566;2024-03-02T20:58:48;53288.94;;;-145.06;100.00
59859;BME280;45734;53.648;9.566;2024-03-02T21:03:48;53244.38;;;-145.06;100.00
59859;BME280;45734;53.648;9.566;2024-03-02T21:08:48;53268.69;;;-145.06;100.00
59859;BME280;45734;53.648;9.566;2024-03-02T21:13:49;53270.72;;;-145.06;100.00
59859;BME280;45734;53.648;9.566;2024-03-02T21:18:49;53264.63;;;-145.06;100.00
59859;BME280;45734;53.648;9.566;2024-03-02T21:23:50;53244.38;;;-145.06;100.00
59859;BME280;45734;53.648;9.566;2024-03-02T21:28:50;53238.31;;;-145.06;100.00
59859;BME280;45734;53.648;9.566;2024-03-02T21:33:51;53232.25;;;-145.06;100.00
59859;BME280;45734;53.648;9.566;2024-03-02T21:38:51;53272.75;;;-145.06;100.00
59859;BME280;45734;53.648;9.566;2024-03-02T21:43:51;53266.66;;;-145.06;100.00
59859;BME280;45734;53.648;9.566;2024-03-02T21:48:52;53250.47;;;-145.06;100.00
59859;BME280;45734;53.648;9.566;2024-03-02T21:53:52;53254.50;;;-145.06;100.00
59859;BME280;45734;53.648;9.566;2024-03-02T21:58:53;53230.22;;;-145.06;100.00
59859;BME280;45734;53.648;9.566;2024-03-02T22:03:54;53240.34;;;-145.06;100.00
59859;BME280;45734;53.648;9.566;2024-03-02T22:08:54;53220.09;;;-145.06;100.00
59859;BME280;45734;53.648;9.566;2024-03-02T22:13:54;53165.41;;;-145.06;100.00
59859;BME280;45734;53.648;9.566;2024-03-02T22:18:55;53191.75;;;-145.06;100.00
59859;BME280;45734;53.648;9.566;2024-03-02T22:23:55;53185.66;;;-145.06;100.00
59859;BME280;45734;53.648;9.566;2024-03-02T22:28:55;53195.78;;;-145.06;100.00
59859;BME280;45734;53.648;9.566;2024-03-02T22:33:56;53137.06;;;-145.06;100.00
59859;BME280;45734;53.648;9.566;2024-03-02T22:38:56;53133.03;;;-145.06;100.00
59859;BME280;45734;53.648;9.566;2024-03-02T22:43:56;53110.75;;;-145.06;100.00
59859;BME280;45734;53.648;9.566;2024-03-02T22:48:58;53120.88;;;-145.06;100.00
59859;BME280;45734;53.648;9.566;2024-03-02T22:53:59;53106.69;;;-145.06;100.00
59859;BME280;45734;53.648;9.566;2024-03-02T22:58:59;53131.00;;;-145.06;100.00
59859;BME280;45734;53.648;9.566;2024-03-02T23:04:01;53062.16;;;-145.06;100.00
59859;BME280;45734;53.648;9.566;2024-03-02T23:09:01;53098.59;;;-145.06;100.00
59859;BME280;45734;53.648;9.566;2024-03-02T23:14:01;53098.59;;;-145.06;100.00
59859;BME280;45734;53.648;9.566;2024-03-02T23:19:02;53098.59;;;-145.06;100.00
59859;BME280;45734;53.648;9.566;2024-03-02T23:24:02;53078.34;;;-145.06;100.00
59859;BME280;45734;53.648;9.566;2024-03-02T23:29:02;53108.72;;;-145.06;100.00
59859;BME280;45734;53.648;9.566;2024-03-02T23:34:03;53066.22;;;-145.06;100.00
59859;BME280;45734;53.648;9.566;2024-03-02T23:39:04;53054.06;;;-145.06;100.00
59859;BME280;45734;53.648;9.566;2024-03-02T23:44:04;53070.25;;;-145.06;100.00
59859;BME280;45734;53.648;9.566;2024-03-02T23:49:07;53070.25;;;-145.06;100.00
59859;BME280;45734;53.648;9.566;2024-03-02T23:54:07;53104.69;;;-145.06;100.00
59859;BME280;45734;53.648;9.566;2024-03-02T23:59:08;53167.44;;;-145.06;100.00
